createdAt,value
2019-02-08T00:00:46.497Z,1.70
2019-02-08T00:03:27.130Z,1.70
2019-02-08T00:06:07.777Z,1.70
2019-02-08T00:08:48.257Z,1.70
2019-02-08T00:11:28.829Z,1.70
2019-02-08T00:14:09.349Z,1.70
2019-02-08T00:16:50.507Z,1.70
2019-02-08T00:19:30.984Z,1.60
2019-02-08T00:22:11.470Z,1.60
2019-02-08T00:24:52.364Z,1.60
2019-02-08T00:27:32.917Z,1.60
2019-02-08T00:30:13.943Z,1.60
2019-02-08T00:32:54.706Z,1.50
2019-02-08T00:35:35.529Z,1.50
2019-02-08T00:38:16.446Z,1.50
2019-02-08T00:40:57.192Z,1.40
2019-02-08T00:43:38.369Z,1.40
2019-02-08T00:48:57.962Z,1.40
2019-02-08T00:51:38.574Z,1.40
2019-02-08T00:54:19.312Z,1.30
2019-02-08T00:57:01.158Z,1.40
2019-02-08T00:59:41.592Z,1.40
2019-02-08T01:02:22.493Z,1.40
2019-02-08T01:05:03.268Z,1.40
2019-02-08T01:07:43.981Z,1.40
2019-02-08T01:10:25.169Z,1.40
2019-02-08T01:12:54.218Z,1.40
2019-02-08T01:15:35.334Z,1.40
2019-02-08T01:18:16.021Z,1.40
2019-02-08T01:20:45.060Z,1.40
2019-02-08T01:23:33.207Z,1.40
2019-02-08T01:29:29.275Z,1.40
2019-02-08T01:32:10.032Z,1.40
2019-02-08T01:34:50.843Z,1.50
2019-02-08T01:37:31.649Z,1.50
2019-02-08T01:40:12.416Z,1.40
2019-02-08T01:42:53.148Z,1.40
2019-02-08T01:45:33.592Z,1.40
2019-02-08T01:48:14.544Z,1.40
2019-02-08T01:50:55.638Z,1.30
2019-02-08T01:53:36.583Z,1.40
2019-02-08T01:56:17.497Z,1.30
2019-02-08T01:58:58.184Z,1.40
2019-02-08T02:01:38.780Z,1.40
2019-02-08T02:04:19.697Z,1.40
2019-02-08T02:07:00.434Z,1.30
2019-02-08T02:09:41.288Z,1.30
2019-02-08T02:12:22.208Z,1.20
2019-02-08T02:15:02.772Z,1.20
2019-02-08T02:17:43.498Z,1.10
2019-02-08T02:20:24.182Z,1.10
2019-02-08T02:23:05.125Z,1.20
2019-02-08T02:25:45.950Z,1.20
2019-02-08T02:28:28.853Z,1.10
2019-02-08T02:31:09.368Z,1.10
2019-02-08T02:33:49.952Z,1.10
2019-02-08T02:36:30.960Z,1.00
2019-02-08T02:39:11.728Z,1.00
2019-02-08T02:41:52.634Z,0.90
2019-02-08T02:44:33.737Z,0.90
2019-02-08T02:47:14.712Z,0.90
2019-02-08T02:49:55.738Z,0.90
2019-02-08T02:52:36.133Z,0.90
2019-02-08T02:55:17.211Z,0.80
2019-02-08T02:57:58.372Z,0.90
2019-02-08T03:00:39.400Z,0.90
2019-02-08T03:03:20.449Z,0.80
2019-02-08T03:06:00.885Z,0.80
2019-02-08T03:08:41.691Z,0.70
2019-02-08T03:11:22.481Z,0.70
2019-02-08T03:14:03.257Z,0.60
2019-02-08T03:16:44.072Z,0.60
2019-02-08T03:19:24.684Z,0.50
2019-02-08T03:22:05.697Z,0.50
2019-02-08T03:24:46.501Z,0.50
2019-02-08T03:27:27.334Z,0.50
2019-02-08T03:30:08.290Z,0.50
2019-02-08T03:32:49.097Z,0.50
2019-02-08T03:35:30.070Z,0.50
2019-02-08T03:38:10.859Z,0.40
2019-02-08T03:40:51.664Z,0.30
2019-02-08T03:43:32.750Z,0.30
2019-02-08T03:46:14.054Z,0.30
2019-02-08T03:48:54.785Z,0.30
2019-02-08T03:51:35.336Z,0.30
2019-02-08T03:54:21.188Z,0.20
2019-02-08T03:57:00.182Z,0.10
2019-02-08T03:59:40.815Z,0.10
2019-02-08T04:02:22.225Z,0.00
2019-02-08T04:05:02.960Z,0.00
2019-02-08T04:07:43.586Z,0.00
2019-02-08T04:10:24.426Z,0.10
2019-02-08T04:13:05.116Z,0.00
2019-02-08T04:15:46.713Z,0.00
2019-02-08T04:18:27.756Z,-0.10
2019-02-08T04:21:08.528Z,-0.10
2019-02-08T04:23:49.200Z,-0.10
2019-02-08T04:26:30.075Z,-0.10
2019-02-08T04:29:10.816Z,0.00
2019-02-08T04:31:51.652Z,-0.10
2019-02-08T04:34:32.174Z,0.00
2019-02-08T04:37:12.514Z,0.00
2019-02-08T04:39:53.105Z,-0.10
2019-02-08T04:42:34.006Z,-0.10
2019-02-08T04:45:15.037Z,-0.10
2019-02-08T04:47:55.857Z,-0.10
2019-02-08T04:50:36.769Z,-0.10
2019-02-08T04:53:17.544Z,-0.20
2019-02-08T04:55:58.351Z,-0.20
2019-02-08T04:58:39.501Z,-0.20
2019-02-08T05:01:20.008Z,-0.20
2019-02-08T05:04:00.544Z,-0.30
2019-02-08T05:06:41.460Z,-0.30
2019-02-08T05:09:22.593Z,-0.30
2019-02-08T05:12:03.307Z,-0.20
2019-02-08T05:14:44.343Z,-0.20
2019-02-08T05:17:25.535Z,-0.20
2019-02-08T05:20:06.286Z,-0.20
2019-02-08T05:22:35.251Z,-0.20
2019-02-08T05:25:23.401Z,-0.20
2019-02-08T05:28:04.717Z,-0.20
2019-02-08T05:30:45.697Z,-0.10
2019-02-08T05:33:26.357Z,-0.10
2019-02-08T05:36:07.628Z,-0.10
2019-02-08T05:38:52.146Z,-0.20
2019-02-08T05:41:33.305Z,-0.30
2019-02-08T05:44:14.132Z,-0.30
2019-02-08T05:46:55.285Z,-0.30
2019-02-08T05:49:35.917Z,-0.40
2019-02-08T05:52:16.628Z,-0.40
2019-02-08T05:54:57.421Z,-0.40
2019-02-08T05:57:38.676Z,-0.30
2019-02-08T06:00:22.543Z,-0.30
2019-02-08T06:03:03.350Z,-0.30
2019-02-08T06:05:45.913Z,-0.40
2019-02-08T06:08:26.981Z,-0.30
2019-02-08T06:11:08.116Z,-0.30
2019-02-08T06:13:48.856Z,-0.30
2019-02-08T06:16:29.692Z,-0.40
2019-02-08T06:19:10.718Z,-0.40
2019-02-08T06:21:51.552Z,-0.50
2019-02-08T06:24:32.495Z,-0.50
2019-02-08T06:27:13.400Z,-0.50
2019-02-08T06:29:54.202Z,-0.50
2019-02-08T06:32:35.054Z,-0.50
2019-02-08T06:35:16.024Z,-0.40
2019-02-08T06:37:56.847Z,-0.40
2019-02-08T06:40:37.588Z,-0.40
2019-02-08T06:46:19.632Z,-0.50
2019-02-08T06:49:00.484Z,-0.50
2019-02-08T06:51:41.500Z,-0.60
2019-02-08T06:54:22.163Z,-0.60
2019-02-08T07:03:37.346Z,-0.40
2019-02-08T07:06:34.559Z,-0.30
2019-02-08T07:09:34.715Z,-0.30
2019-02-08T07:12:40.123Z,-0.20
2019-02-08T07:15:40.334Z,-0.20
2019-02-08T07:18:39.961Z,-0.20
2019-02-08T07:21:42.265Z,-0.30
2019-02-08T07:24:24.239Z,-0.30
2019-02-08T07:27:16.575Z,-0.30
2019-02-08T07:30:04.325Z,-0.30
2019-02-08T07:33:07.195Z,-0.30
2019-02-08T07:35:58.788Z,-0.20
2019-02-08T07:38:50.899Z,-0.20
2019-02-08T07:41:50.650Z,-0.10
2019-02-08T07:44:41.575Z,0.00
2019-02-08T07:47:28.328Z,0.10
2019-02-08T07:50:31.692Z,0.20
2019-02-08T07:53:32.023Z,0.30
2019-02-08T07:56:27.889Z,0.30
2019-02-08T07:59:21.797Z,0.30
2019-02-08T08:02:11.340Z,0.30
2019-02-08T08:05:11.053Z,0.20
2019-02-08T08:08:11.027Z,0.20
2019-02-08T08:11:01.033Z,0.20
2019-02-08T08:13:54.786Z,0.20
2019-02-08T08:17:00.813Z,0.30
2019-02-08T08:20:00.542Z,0.30
2019-02-08T08:22:53.478Z,0.40
2019-02-08T08:25:53.748Z,0.50
2019-02-08T08:28:54.012Z,0.50
2019-02-08T08:31:40.756Z,0.70
2019-02-08T08:34:22.118Z,0.90
2019-02-08T08:37:02.964Z,1.10
2019-02-08T08:39:43.494Z,1.30
2019-02-08T08:42:23.791Z,1.60
2019-02-08T08:45:04.553Z,1.80
2019-02-08T08:47:45.069Z,2.00
2019-02-08T08:50:25.727Z,2.20
2019-02-08T08:53:06.492Z,2.40
2019-02-08T08:55:47.158Z,2.60
2019-02-08T08:58:27.965Z,2.70
2019-02-08T09:01:09.252Z,2.80
2019-02-08T09:03:50.396Z,2.90
2019-02-08T09:06:30.885Z,3.00
2019-02-08T09:09:12.455Z,3.10
2019-02-08T09:11:53.548Z,3.10
2019-02-08T09:14:34.205Z,3.10
2019-02-08T09:17:15.188Z,3.10
2019-02-08T09:19:55.909Z,3.20
2019-02-08T09:22:36.860Z,3.20
2019-02-08T09:25:17.729Z,3.30
2019-02-08T09:27:58.565Z,3.40
2019-02-08T09:30:39.294Z,3.50
2019-02-08T09:33:20.293Z,3.60
2019-02-08T09:36:01.366Z,3.70
2019-02-08T09:38:42.108Z,3.80
2019-02-08T09:41:22.987Z,3.90
2019-02-08T09:44:03.718Z,4.00
2019-02-08T09:46:44.495Z,4.10
2019-02-08T09:49:25.076Z,4.00
2019-02-08T09:52:06.148Z,4.00
2019-02-08T09:54:46.977Z,4.00
2019-02-08T09:57:28.266Z,4.00
2019-02-08T10:00:09.113Z,4.00
2019-02-08T10:02:49.924Z,4.20
2019-02-08T10:05:30.664Z,4.20
2019-02-08T10:08:11.317Z,4.30
2019-02-08T10:10:52.212Z,4.30
2019-02-08T10:13:33.115Z,4.30
2019-02-08T10:16:14.113Z,4.40
2019-02-08T10:18:54.927Z,4.50
2019-02-08T10:21:35.707Z,4.50
2019-02-08T10:24:16.471Z,4.60
2019-02-08T10:26:57.313Z,4.70
2019-02-08T10:29:38.308Z,4.80
2019-02-08T10:32:18.805Z,4.90
2019-02-08T10:34:59.609Z,5.10
2019-02-08T10:37:40.403Z,5.20
2019-02-08T10:40:21.417Z,5.20
2019-02-08T10:43:02.276Z,5.30
2019-02-08T10:45:43.079Z,5.40
2019-02-08T10:48:23.440Z,5.40
2019-02-08T10:51:04.123Z,5.40
2019-02-08T10:53:45.051Z,5.50
2019-02-08T10:56:25.811Z,5.40
2019-02-08T10:59:07.865Z,5.40
2019-02-08T11:01:49.401Z,5.50
2019-02-08T11:04:29.901Z,5.50
2019-02-08T11:07:10.484Z,5.60
2019-02-08T11:09:51.237Z,5.60
2019-02-08T11:12:31.872Z,5.60
2019-02-08T11:15:12.477Z,5.70
2019-02-08T11:17:52.916Z,5.80
2019-02-08T11:20:33.997Z,5.90
2019-02-08T11:23:14.452Z,6.00
2019-02-08T11:25:55.653Z,5.90
2019-02-08T11:28:36.501Z,5.90
2019-02-08T11:31:17.394Z,5.90
2019-02-08T11:33:58.017Z,6.00
2019-02-08T11:36:40.417Z,6.00
2019-02-08T11:39:21.289Z,6.00
2019-02-08T11:42:02.128Z,6.10
2019-02-08T11:44:43.149Z,6.20
2019-02-08T11:47:23.992Z,6.20
2019-02-08T11:50:04.859Z,6.20
2019-02-08T11:52:45.705Z,6.20
2019-02-08T11:55:26.420Z,6.20
2019-02-08T11:58:07.864Z,6.20
2019-02-08T12:00:51.504Z,6.20
2019-02-08T12:03:32.108Z,6.20
2019-02-08T12:06:12.990Z,6.20
2019-02-08T12:08:54.053Z,6.30
2019-02-08T12:11:35.024Z,6.30
2019-02-08T12:14:15.523Z,6.20
2019-02-08T12:16:56.545Z,6.30
2019-02-08T12:19:37.470Z,6.40
2019-02-08T12:22:18.146Z,6.40
2019-02-08T12:24:58.855Z,6.40
2019-02-08T12:27:39.576Z,6.40
2019-02-08T12:30:20.246Z,6.40
2019-02-08T12:33:01.063Z,6.40
2019-02-08T12:35:41.796Z,6.40
2019-02-08T12:38:22.479Z,6.40
2019-02-08T12:41:09.628Z,6.50
2019-02-08T12:43:46.575Z,6.60
2019-02-08T12:46:27.910Z,6.60
2019-02-08T12:49:09.144Z,6.70
2019-02-08T12:51:50.507Z,6.60
2019-02-08T12:54:31.291Z,6.70
2019-02-08T12:57:12.605Z,6.90
2019-02-08T12:59:53.772Z,6.80
2019-02-08T13:02:34.428Z,6.90
2019-02-08T13:05:15.156Z,6.80
2019-02-08T13:07:55.979Z,6.70
2019-02-08T13:10:36.854Z,6.70
2019-02-08T13:13:17.581Z,6.80
2019-02-08T13:15:58.310Z,6.90
2019-02-08T13:18:39.220Z,7.00
2019-02-08T13:24:03.363Z,7.20
2019-02-08T13:26:43.774Z,7.40
2019-02-08T13:29:24.623Z,7.40
2019-02-08T13:32:05.523Z,7.50
2019-02-08T13:34:47.264Z,7.70
2019-02-08T13:37:28.032Z,7.80
2019-02-08T13:40:08.852Z,7.90
2019-02-08T13:42:38.454Z,7.90
2019-02-08T13:45:26.634Z,8.00
2019-02-08T13:48:07.616Z,8.00
2019-02-08T13:50:48.872Z,8.10
2019-02-08T13:53:29.752Z,8.20
2019-02-08T13:56:10.477Z,8.20
2019-02-08T13:58:51.278Z,8.40
2019-02-08T14:01:32.208Z,8.70
2019-02-08T14:04:13.300Z,8.70
2019-02-08T14:06:54.162Z,8.70
2019-02-08T14:09:34.781Z,8.70
2019-02-08T14:12:15.848Z,8.80
2019-02-08T14:14:56.703Z,8.70
2019-02-08T14:17:37.637Z,8.50
2019-02-08T14:20:18.606Z,8.40
2019-02-08T14:22:59.937Z,8.20
2019-02-08T14:25:40.589Z,8.00
2019-02-08T14:28:21.681Z,7.80
2019-02-08T14:31:02.332Z,7.60
2019-02-08T14:33:43.233Z,7.40
2019-02-08T14:36:24.006Z,7.20
2019-02-08T14:39:05.264Z,7.10
2019-02-08T14:41:45.798Z,7.00
2019-02-08T14:44:26.729Z,6.90
2019-02-08T14:47:07.502Z,7.00
2019-02-08T14:49:50.224Z,7.00
2019-02-08T14:52:31.402Z,7.10
2019-02-08T14:55:12.490Z,7.10
2019-02-08T14:57:53.334Z,7.10
2019-02-08T15:00:34.330Z,7.10
2019-02-08T15:03:15.416Z,7.00
2019-02-08T15:05:56.150Z,6.90
2019-02-08T15:08:37.168Z,6.80
2019-02-08T15:11:18.258Z,6.70
2019-02-08T15:13:59.163Z,6.70
2019-02-08T15:16:39.963Z,6.60
2019-02-08T15:19:20.817Z,6.50
2019-02-08T15:22:01.626Z,6.60
2019-02-08T15:24:42.593Z,6.50
2019-02-08T15:27:24.434Z,6.50
2019-02-08T15:30:05.839Z,6.40
2019-02-08T15:32:46.791Z,6.30
2019-02-08T15:35:27.982Z,6.20
2019-02-08T15:38:09.070Z,6.10
2019-02-08T15:40:49.832Z,6.00
2019-02-08T15:43:30.816Z,6.00
2019-02-08T15:46:11.475Z,5.90
2019-02-08T15:48:52.282Z,5.90
2019-02-08T15:51:33.211Z,5.80
2019-02-08T15:54:13.884Z,5.70
2019-02-08T15:56:54.897Z,5.60
2019-02-08T15:59:35.777Z,5.60
2019-02-08T16:02:16.548Z,5.40
2019-02-08T16:04:57.270Z,5.30
2019-02-08T16:07:38.316Z,5.30
2019-02-08T16:10:19.340Z,5.20
2019-02-08T16:13:00.219Z,5.10
2019-02-08T16:15:40.892Z,5.00
2019-02-08T16:18:21.535Z,5.00
2019-02-08T16:21:02.570Z,4.90
2019-02-08T16:23:43.373Z,4.80
2019-02-08T16:26:24.108Z,4.70
2019-02-08T16:29:05.139Z,4.60
2019-02-08T16:31:46.041Z,4.50
2019-02-08T16:34:26.953Z,4.40
2019-02-08T16:37:07.629Z,4.40
2019-02-08T16:39:48.283Z,4.30
2019-02-08T16:42:29.013Z,4.20
2019-02-08T16:45:09.844Z,4.20
2019-02-08T16:47:50.629Z,4.30
2019-02-08T16:50:31.356Z,4.20
2019-02-08T16:53:12.269Z,4.20
2019-02-08T16:55:53.263Z,4.10
2019-02-08T16:58:33.748Z,3.90
2019-02-08T17:01:14.161Z,3.80
2019-02-08T17:03:54.789Z,3.70
2019-02-08T17:06:35.702Z,3.70
2019-02-08T17:09:17.803Z,3.50
2019-02-08T17:11:58.605Z,3.50
2019-02-08T17:14:39.512Z,3.50
2019-02-08T17:17:20.237Z,3.50
2019-02-08T17:20:00.748Z,3.40
2019-02-08T17:22:41.127Z,3.30
2019-02-08T17:25:21.807Z,3.20
2019-02-08T17:28:02.406Z,3.20
2019-02-08T17:30:43.314Z,3.10
2019-02-08T17:33:24.774Z,3.10
2019-02-08T17:36:05.625Z,3.10
2019-02-08T17:38:46.840Z,3.00
2019-02-08T17:41:27.259Z,2.90
2019-02-08T17:44:08.567Z,2.90
2019-02-08T17:46:49.290Z,2.90
2019-02-08T17:49:29.998Z,2.80
2019-02-08T17:52:11.170Z,2.80
2019-02-08T17:54:51.788Z,2.70
2019-02-08T17:57:32.666Z,2.60
2019-02-08T18:00:13.482Z,2.50
2019-02-08T18:02:54.311Z,2.40
2019-02-08T18:05:35.142Z,2.30
2019-02-08T18:08:15.955Z,2.30
2019-02-08T18:10:57.130Z,2.30
2019-02-08T18:13:37.912Z,2.30
2019-02-08T18:16:06.940Z,2.30
2019-02-08T18:18:55.127Z,2.30
2019-02-08T18:21:35.800Z,2.30
2019-02-08T18:24:16.586Z,2.30
2019-02-08T18:26:57.881Z,2.20
2019-02-08T18:29:39.149Z,2.20
2019-02-08T18:32:20.231Z,2.10
2019-02-08T18:35:01.283Z,2.00
2019-02-08T18:37:42.066Z,1.90
2019-02-08T18:40:22.875Z,1.90
2019-02-08T18:43:03.723Z,1.80
2019-02-08T18:45:44.494Z,1.80
2019-02-08T18:48:25.339Z,1.80
2019-02-08T18:51:06.137Z,1.80
2019-02-08T18:53:47.096Z,1.80
2019-02-08T18:56:29.381Z,1.80
2019-02-08T18:59:09.706Z,1.70
2019-02-08T19:01:50.872Z,1.60
2019-02-08T19:04:31.688Z,1.60
2019-02-08T19:07:12.364Z,1.60
2019-02-08T19:09:53.124Z,1.50
2019-02-08T19:12:34.542Z,1.40
2019-02-08T19:15:15.468Z,1.40
2019-02-08T19:20:41.366Z,1.50
2019-02-08T19:23:22.146Z,1.50
2019-02-08T19:26:02.888Z,1.50
2019-02-08T19:31:23.119Z,1.60
2019-02-08T19:34:04.075Z,1.70
2019-02-08T19:36:44.969Z,1.60
2019-02-08T19:39:25.789Z,1.60
2019-02-08T19:42:06.625Z,1.40
2019-02-08T19:44:47.302Z,1.40
2019-02-08T19:47:28.134Z,1.50
2019-02-08T19:50:09.105Z,1.50
2019-02-08T19:52:49.976Z,1.60
2019-02-08T19:55:30.819Z,1.50
2019-02-08T19:58:11.748Z,1.50
2019-02-08T20:00:52.630Z,1.50
2019-02-08T20:03:33.402Z,1.60
2019-02-08T20:06:14.575Z,1.50
2019-02-08T20:08:55.514Z,1.50
2019-02-08T20:11:36.698Z,1.50
2019-02-08T20:14:17.607Z,1.50
2019-02-08T20:16:58.421Z,1.50
2019-02-08T20:19:39.319Z,1.50
2019-02-08T20:22:19.941Z,1.50
2019-02-08T20:25:00.690Z,1.50
2019-02-08T20:27:41.410Z,1.50
2019-02-08T20:30:22.158Z,1.40
2019-02-08T20:33:03.045Z,1.50
2019-02-08T20:35:43.944Z,1.50
2019-02-08T20:38:24.821Z,1.40
2019-02-08T20:41:08.635Z,1.40
2019-02-08T20:43:49.483Z,1.50
2019-02-08T20:46:30.180Z,1.50
2019-02-08T20:49:11.241Z,1.50
2019-02-08T20:51:52.301Z,1.50
2019-02-08T20:54:33.260Z,1.40
2019-02-08T20:57:14.104Z,1.50
2019-02-08T20:59:54.725Z,1.50
2019-02-08T21:02:35.792Z,1.60
2019-02-08T21:05:16.631Z,1.60
2019-02-08T21:07:57.605Z,1.50
2019-02-08T21:10:38.535Z,1.50
2019-02-08T21:13:19.336Z,1.50
2019-02-08T21:16:00.168Z,1.40
2019-02-08T21:18:29.072Z,1.50
2019-02-08T21:21:17.237Z,1.40
2019-02-08T21:23:58.354Z,1.40
2019-02-08T21:26:39.104Z,1.40
2019-02-08T21:29:20.245Z,1.40
2019-02-08T21:32:00.900Z,1.30
2019-02-08T21:34:41.624Z,1.30
2019-02-08T21:37:22.571Z,1.30
2019-02-08T21:40:03.256Z,1.30
2019-02-08T21:42:44.540Z,1.20
2019-02-08T21:45:25.605Z,1.20
2019-02-08T21:47:54.655Z,1.20
2019-02-08T21:50:42.801Z,1.20
2019-02-08T21:53:30.945Z,1.20
2019-02-08T21:56:11.810Z,1.10
2019-02-08T21:58:52.333Z,1.10
2019-02-08T22:01:33.336Z,1.10
2019-02-08T22:04:14.300Z,1.10
2019-02-08T22:06:54.927Z,1.20
2019-02-08T22:09:35.734Z,1.20
2019-02-08T22:12:16.881Z,1.20
2019-02-08T22:14:57.605Z,1.20
2019-02-08T22:17:38.283Z,1.10
2019-02-08T22:20:19.012Z,1.00
2019-02-08T22:23:00.268Z,1.00
2019-02-08T22:25:41.078Z,1.00
2019-02-08T22:28:21.821Z,0.90
2019-02-08T22:31:02.863Z,0.80
2019-02-08T22:33:44.199Z,0.70
2019-02-08T22:36:25.177Z,0.70
2019-02-08T22:39:06.097Z,0.70
2019-02-08T22:41:47.049Z,0.70
2019-02-08T22:44:27.970Z,0.70
2019-02-08T22:49:53.073Z,0.70
2019-02-08T22:52:34.374Z,0.70
2019-02-08T22:55:14.975Z,0.60
2019-02-08T22:57:55.856Z,0.60
2019-02-08T23:00:37.730Z,0.70
2019-02-08T23:03:18.751Z,0.70
2019-02-08T23:05:59.476Z,0.80
2019-02-08T23:08:40.325Z,0.70
2019-02-08T23:11:21.155Z,0.80
2019-02-08T23:13:50.196Z,0.70
2019-02-08T23:16:38.336Z,0.70
2019-02-08T23:19:26.500Z,0.70
2019-02-08T23:22:14.676Z,0.80
2019-02-08T23:25:02.834Z,0.70
2019-02-08T23:27:43.645Z,0.70
2019-02-08T23:30:24.493Z,0.60
2019-02-08T23:33:05.294Z,0.60
2019-02-08T23:35:46.019Z,0.70
2019-02-08T23:38:26.696Z,0.70
2019-02-08T23:41:07.694Z,0.60
2019-02-08T23:43:48.456Z,0.60
2019-02-08T23:46:29.276Z,0.60
2019-02-08T23:49:10.080Z,0.50
2019-02-08T23:51:50.937Z,0.50
2019-02-08T23:54:31.702Z,0.40
2019-02-08T23:57:12.624Z,0.40
2019-02-08T23:59:53.474Z,0.40
